Latest Weather Observations for Cabramurra

IDN60901

Issued at 2:11 pm EDT Tuesday 28 February 2017 (issued every 10 minutes, with the page automatically refreshed every 10 minutes)

About weather observations | Map of Canberra area stations | Latest observations for Canberra area | Other Formats
Station Details ID: 072161 Name: CABRAMURRA SMHEA AWS Lat: -35.94 Lon: 148.38 Height: 1482.4 m
Data from the previous 72 hours. | See also: Recent months at Cabramurra
Date/Time
EDT
Temp
°C
App
Temp
°C
Dew
Point
°C
Rel
Hum
%
Delta-T
°C
Wind Press
QNH
hPa
Press
MSL
hPa
Rain since
9am
mm
Dir  Spd
km/h
Gust
km/h
Spd
kts
Gust
kts
28/02:00pm 19.5 17.8 9.7 53 5.6 WSW 9 13 5 7 - - 0.0
28/01:30pm 20.9 19.0 10.4 51 6.1 WNW 11 15 6 8 - - 0.0
28/01:00pm 19.8 18.7 10.5 55 5.4 WNW 7 13 4 7 - - 0.0
28/12:30pm 17.9 15.7 9.3 57 4.8 WNW 11 15 6 8 - - 0.0
28/12:00pm 17.9 15.9 10.3 61 4.4 NNW 11 15 6 8 - - 0.0
28/11:30am 17.4 15.3 9.8 61 4.3 WNW 11 15 6 8 - - 0.0
28/11:00am 16.8 15.6 9.7 63 4.0 NW 6 11 3 6 - - 0.0
28/10:30am 16.9 13.2 8.1 56 4.8 E 17 20 9 11 - - 0.0
28/10:00am 15.7 12.8 8.2 61 4.1 ESE 13 19 7 10 - - 0.0
28/09:30am 14.0 11.2 6.8 62 3.8 SE 11 15 6 8 - - 0.0
28/09:00am 13.8 10.3 7.1 64 3.5 ESE 15 22 8 12 - - 0.0
28/08:30am 13.0 9.0 6.8 66 3.2 ESE 17 22 9 12 - - 0.0
28/08:00am 12.4 8.0 6.5 67 3.1 ESE 19 24 10 13 - - 0.0
28/07:30am 11.7 6.6 6.0 68 2.9 ESE 22 30 12 16 - - 0.0
28/07:00am 11.2 5.1 4.7 64 3.2 ESE 26 32 14 17 - - 0.0
28/06:30am 11.5 5.1 3.3 57 3.9 ESE 26 32 14 17 - - 0.0
28/06:00am 10.7 5.4 1.8 54 4.1 ESE 19 32 10 17 - - 0.0
28/05:30am 11.8 6.6 0.3 45 5.2 ESE 17 24 9 13 - - 0.0
28/05:00am 12.7 6.2 -2.3 35 6.4 ESE 22 28 12 15 - - 0.0
28/04:30am 12.3 6.5 -0.2 42 5.6 ESE 20 28 11 15 - - 0.0
28/04:00am 11.8 5.6 2.3 52 4.5 ESE 24 30 13 16 - - 0.0
28/03:30am 12.7 5.6 1.1 45 5.4 ESE 28 33 15 18 - - 0.0
28/03:00am 12.4 5.3 3.4 54 4.4 ESE 30 35 16 19 - - 0.0
28/02:30am 12.1 5.4 5.7 65 3.3 ESE 30 35 16 19 - - 0.0
28/02:00am 12.2 5.7 6.7 69 2.9 ESE 30 35 16 19 - - 0.0
28/01:30am 12.3 5.3 5.9 65 3.3 ESE 32 35 17 19 - - 0.0
28/01:00am 13.1 6.3 5.0 58 4.1 ESE 30 35 16 19 - - 0.0
28/12:30am 13.3 6.2 5.7 60 3.9 ESE 32 37 17 20 - - 0.0
28/12:00am 12.9 6.4 8.2 73 2.5 ESE 32 37 17 20 - - 0.0
 
Date/Time
EDT
Temp
°C
App
Temp
°C
Dew
Point
°C
Rel
Hum
%
Delta-T
°C
Wind Press
QNH
hPa
Press
MSL
hPa
Rain since
9am
mm
Dir  Spd
km/h
Gust
km/h
Spd
kts
Gust
kts
27/11:30pm 12.4 6.0 8.5 77 2.1 E 32 39 17 21 - - 0.0
27/11:00pm 13.0 6.4 8.7 75 2.3 ESE 33 41 18 22 - - 0.0
27/10:30pm 13.0 6.5 8.3 73 2.5 ESE 32 41 17 22 - - 0.0
27/10:00pm 13.5 7.4 8.4 71 2.8 ESE 30 39 16 21 - - 0.0
27/09:30pm 13.8 8.1 8.2 69 3.0 ESE 28 35 15 19 - - 0.0
27/09:00pm 14.5 8.0 8.2 66 3.4 ESE 32 39 17 21 - - 0.0
27/08:30pm 15.0 9.2 8.0 63 3.8 ESE 28 37 15 20 - - 0.0
27/08:00pm 16.0 9.8 7.7 58 4.5 ESE 30 33 16 18 - - 0.0
27/07:30pm 17.1 11.9 5.4 46 6.1 ESE 22 28 12 15 - - 0.0
27/07:00pm 17.6 12.7 4.9 43 6.6 ESE 20 24 11 13 - - 0.0
27/06:30pm 18.3 13.6 6.2 45 6.5 ESE 20 26 11 14 - - 0.0
27/06:00pm 18.9 15.5 6.1 43 6.8 ESE 13 19 7 10 - - 0.0
27/05:30pm 19.6 16.7 6.4 42 7.1 SE 11 19 6 10 - - 0.0
27/05:00pm 19.8 16.5 6.5 42 7.2 SSE 13 20 7 11 - - 0.0
27/04:30pm 19.3 17.2 6.8 44 6.8 S 7 19 4 10 - - 0.0
27/04:00pm 20.1 17.9 6.1 40 7.5 S 7 13 4 7 - - 0.0
27/03:30pm 19.6 17.4 8.0 47 6.4 WNW 9 15 5 8 - - 0.0
27/03:00pm 19.2 16.9 7.6 47 6.4 SSE 9 19 5 10 - - 0.0
27/02:30pm 19.3 16.8 8.0 48 6.3 NW 11 15 6 8 - - 0.0
27/02:00pm 18.7 16.8 7.5 48 6.1 SSW 7 19 4 10 - - 0.0
27/01:30pm 18.7 16.7 7.2 47 6.3 WNW 7 15 4 8 - - 0.0
27/01:00pm 17.5 15.1 7.0 50 5.7 WSW 9 13 5 7 - - 0.0
27/12:30pm 18.5 16.3 7.9 50 5.8 NW 9 15 5 8 - - 0.0
27/12:00pm 16.5 16.0 10.6 68 3.4 WSW 4 11 2 6 - - 0.0
27/11:30am 16.3 15.2 10.8 70 3.2 WSW 7 11 4 6 - - 0.0
27/11:00am 16.2 15.8 9.8 66 3.6 NNW 2 7 1 4 - - 0.0
27/10:30am 15.6 13.4 9.3 66 3.5 ESE 11 19 6 10 - - 0.0
27/10:00am 14.7 11.2 10.3 75 2.5 E 19 28 10 15 - - 0.0
27/09:30am 14.1 9.7 10.3 78 2.1 E 24 33 13 18 - - 0.0
27/09:00am 12.7 8.6 10.1 84 1.4 E 22 30 12 16 - - 0.0
27/08:30am 11.5 5.9 10.2 92 0.7 E 30 39 16 21 - - 0.0
27/08:00am 10.2 4.6 10.1 99 0.1 E 30 43 16 23 - - 0.0
27/07:30am 9.9 4.6 9.8 99 0.1 E 28 37 15 20 - - 0.0
27/07:00am 9.4 3.0 9.3 99 0.1 E 33 50 18 27 - - 0.0
27/06:32am 9.3 2.5 9.2 99 0.1 E 35 56 19 30 - - 0.0
27/06:30am 9.4 2.6 9.3 99 0.1 E 35 46 19 25 - - 0.0
27/06:00am 8.8 1.5 8.7 99 0.1 E 37 50 20 27 - - 0.0
27/05:30am 8.6 0.9 8.5 99 0.1 E 39 50 21 27 - - 0.0
27/05:00am 9.4 0.3 5.9 79 1.8 E 43 54 23 29 - - 0.0
27/04:30am 9.8 1.9 4.2 68 2.7 E 35 48 19 26 - - 0.0
27/04:00am 9.4 3.0 3.4 66 2.8 E 26 39 14 21 - - 0.0
27/03:30am 9.0 3.3 2.6 64 3.0 ESE 22 33 12 18 - - 0.0
27/03:00am 8.7 2.6 0.7 57 3.5 E 22 35 12 19 - - 0.0
27/02:30am 9.3 2.0 2.2 61 3.3 ESE 30 43 16 23 - - 0.0
27/02:00am 9.5 1.4 3.5 66 2.9 ESE 35 46 19 25 - - 0.0
27/01:30am 9.3 0.9 5.7 78 1.8 ESE 39 50 21 27 - - 0.0
27/01:00am 9.1 1.0 6.9 86 1.1 ESE 39 46 21 25 - - 0.0
27/12:30am 8.8 0.3 7.1 89 0.9 ESE 41 48 22 26 - - 0.0
27/12:00am 9.0 0.3 7.6 91 0.7 ESE 43 50 23 27 - - 0.0
 
Date/Time
EDT
Temp
°C
App
Temp
°C
Dew
Point
°C
Rel
Hum
%
Delta-T
°C
Wind Press
QNH
hPa
Press
MSL
hPa
Rain since
9am
mm
Dir  Spd
km/h
Gust
km/h
Spd
kts
Gust
kts
26/11:30pm 8.8 0.5 7.7 93 0.6 ESE 41 54 22 29 - - 0.0
26/11:00pm 9.7 2.9 7.8 88 1.0 ESE 33 44 18 24 - - 0.0
26/10:30pm 9.7 3.4 7.5 86 1.1 ESE 30 43 16 23 - - 0.0
26/10:00pm 10.6 3.8 7.1 79 1.8 ESE 32 39 17 21 - - 0.0
26/09:30pm 11.5 5.4 6.8 73 2.4 ESE 28 37 15 20 - - 0.0
26/09:00pm 12.3 7.0 7.0 70 2.8 ESE 24 33 13 18 - - 0.0
26/08:30pm 13.2 7.2 7.0 66 3.3 ESE 28 35 15 19 - - 0.0
26/08:00pm 14.2 8.6 7.3 63 3.7 ESE 26 33 14 18 - - 0.0
26/07:30pm 14.9 10.1 7.5 61 4.0 ESE 22 30 12 16 - - 0.0
26/07:00pm 15.7 11.2 7.0 56 4.6 SE 20 30 11 16 - - 0.0
26/06:30pm 15.9 11.4 6.9 55 4.8 SE 20 28 11 15 - - 0.0
26/06:00pm 16.4 12.9 7.3 55 4.9 ESE 15 22 8 12 - - 0.0
26/05:30pm 17.8 15.4 7.0 49 5.8 ESE 9 15 5 8 - - 0.0
26/05:00pm 19.3 18.3 7.4 46 6.5 NNW 2 9 1 5 - - 0.0
26/04:30pm 18.1 15.0 3.6 38 7.3 SSE 9 13 5 7 - - 0.0
26/04:00pm 16.9 15.5 5.5 47 5.9 SSW 2 11 1 6 - - 0.0
26/03:30pm 18.3 16.8 8.3 52 5.5 SW 6 9 3 5 - - 0.0
26/03:00pm 16.8 15.0 8.0 56 4.8 S 7 9 4 5 - - 0.0
26/02:30pm 16.2 14.5 8.4 60 4.3 WSW 7 11 4 6 - - 0.0
26/02:00pm 14.9 12.6 9.1 68 3.2 S 11 15 6 8 - - 0.0
26/01:30pm 15.0 13.4 8.9 67 3.4 SSW 7 13 4 7 - - 0.0
26/01:00pm 15.3 13.6 8.5 64 3.7 E 7 13 4 7 - - 0.0
26/12:30pm 14.9 11.9 9.1 68 3.2 ESE 15 20 8 11 - - 0.0
26/12:00pm 14.2 10.6 8.2 67 3.2 E 17 20 9 11 - - 0.0
26/11:30am 12.9 8.6 7.8 71 2.7 E 20 30 11 16 - - 0.0
26/11:00am 11.8 6.6 7.3 74 2.4 ESE 24 30 13 16 - - 0.0
26/10:30am 11.6 6.0 7.3 75 2.2 ESE 26 35 14 19 - - 0.0
26/10:00am 11.0 5.1 7.5 79 1.8 ESE 28 41 15 22 - - 0.0
26/09:30am 10.8 4.5 7.5 80 1.7 ESE 30 41 16 22 - - 0.0
26/09:00am 9.3 2.4 7.1 86 1.1 ESE 33 44 18 24 - - 0.0
26/08:30am 8.1 2.9 7.2 94 0.5 ESE 24 37 13 20 - - 0.0
26/08:00am 7.0 0.6 6.9 99 0.1 ESE 30 44 16 24 - - 0.0
26/07:48am 6.9 0.1 6.8 99 0.1 ESE 32 52 17 28 - - 0.0
26/07:30am 6.8 -0.6 6.7 99 0.1 ESE 35 46 19 25 - - 0.0
26/07:00am 6.8 0.3 6.7 99 0.1 ESE 30 44 16 24 - - 0.0
26/06:30am 7.0 -0.7 6.9 99 0.1 ESE 37 48 20 26 - - 0.0
26/06:00am 7.1 -1.0 7.0 99 0.1 ESE 39 52 21 28 - - 0.0
26/05:30am 7.3 -0.8 7.2 99 0.1 ESE 39 54 21 29 - - 0.0
26/05:00am 7.3 -1.1 7.2 99 0.1 ESE 41 54 22 29 - - 0.0
26/04:30am 7.4 -1.0 7.3 99 0.1 ESE 41 59 22 32 - - 0.0
26/04:00am 7.5 -0.9 7.4 99 0.1 ESE 41 54 22 29 - - 0.0
26/03:30am 7.8 1.0 7.7 99 0.1 ESE 33 48 18 26 - - 0.0
26/03:00am 8.0 0.1 7.9 99 0.1 ESE 39 56 21 30 - - 0.0
26/02:30am 8.6 0.0 8.3 98 0.2 ESE 43 54 23 29 - - 0.0
26/02:00am 8.9 0.2 8.6 98 0.2 ESE 44 56 24 30 - - 0.0
26/01:48am 8.9 0.8 8.8 99 0.1 ESE 41 59 22 32 - - 0.0
26/01:30am 8.9 0.8 8.8 99 0.1 ESE 41 54 22 29 - - 0.0
26/01:02am 9.1 0.7 9.0 99 0.1 ESE 43 61 23 33 - - 0.0
26/01:00am 9.1 0.5 9.0 99 0.1 ESE 44 61 24 33 - - 0.0
26/12:49am 9.1 0.7 9.0 99 0.1 ESE 43 61 23 33 - - 0.0
26/12:30am 9.1 -0.2 9.0 99 0.1 ESE 48 59 26 32 - - 0.0
26/12:00am 9.2 0.3 9.1 99 0.1 ESE 46 59 25 32 - - 0.0
 
Date/Time
EDT
Temp
°C
App
Temp
°C
Dew
Point
°C
Rel
Hum
%
Delta-T
°C
Wind Press
QNH
hPa
Press
MSL
hPa
Rain since
9am
mm
Dir  Spd
km/h
Gust
km/h
Spd
kts
Gust
kts
25/11:30pm 9.3 0.0 9.2 99 0.1 ESE 48 63 26 34 - - 0.0
25/11:00pm 9.3 0.0 9.2 99 0.1 ESE 48 61 26 33 - - 0.0
25/10:30pm 9.6 1.0 8.8 95 0.4 ESE 44 56 24 30 - - 0.0
25/10:00pm 9.6 1.6 9.0 96 0.3 ESE 41 52 22 28 - - 0.0
25/09:30pm 9.8 1.2 8.9 94 0.5 ESE 44 57 24 31 - - 0.0
25/09:00pm 10.1 1.6 8.7 91 0.7 ESE 43 57 23 31 - - 0.0
25/08:30pm 10.4 2.3 8.7 89 0.9 ESE 41 52 22 28 - - 0.0
25/08:00pm 10.8 3.1 8.6 86 1.2 ESE 39 52 21 28 - - 0.0
25/07:30pm 11.4 3.6 8.4 82 1.6 ESE 39 50 21 27 - - 0.0
25/07:00pm 12.6 5.9 8.1 74 2.4 ESE 33 43 18 23 - - 0.0
25/06:30pm 13.6 7.4 8.0 69 3.0 ESE 30 41 16 22 - - 0.0
25/06:00pm 14.1 8.4 8.3 68 3.1 ESE 28 41 15 22 - - 0.0
25/05:30pm 14.2 8.2 8.6 69 3.1 ESE 30 39 16 21 - - 0.0
25/05:00pm 14.6 9.8 8.8 68 3.2 ESE 24 35 13 19 - - 0.0
25/04:30pm 14.6 10.7 9.4 71 2.9 ESE 20 32 11 17 - - 0.0
25/04:00pm 13.3 8.0 8.6 73 2.6 ESE 26 39 14 21 - - 0.0
25/03:30pm 13.9 8.2 9.7 76 2.3 SE 30 41 16 22 - - 0.0
25/03:00pm 14.2 8.8 9.4 73 2.7 ESE 28 39 15 21 - - 0.0
25/02:30pm 15.3 11.4 10.7 74 2.6 ESE 22 32 12 17 - - 0.0

Latest Capital City Observations: Canberra | Sydney | Melbourne | Brisbane | Adelaide | Perth | Hobart | Darwin

Other Formats:

Comma delimited format used in spreadsheet applications
http://www.bom.gov.au/fwo/IDN60903/IDN60903.95916.axf

JavaScript Object Notation format (JSON) in row-major order
http://www.bom.gov.au/fwo/IDN60903/IDN60903.95916.json